Time;durP1;ratioP1;P1;durP2;ratioP2;P2;SDS_P1;SDS_P2;PMS_P1;PMS_P2;Temp;Humidity;BMP_temperature;BMP_pressure;BME280_temperature;BME280_humidity;BME280_pressure;Samples;Min_cycle;Max_cycle;Signal;HPM_P1;HPM_P2
2023/04/26 00:01:36;;;;;;;2.40;1.45;;;7.70;99.90;;;;;;4156161;28;20468;-67
2023/04/26 00:03:39;;;;;;;6.28;2.45;;;7.70;99.90;;;;;;4157070;28;20476;-67
2023/04/26 00:05:39;;;;;;;4.97;1.85;;;7.70;99.90;;;;;;4154808;28;20392;-66
2023/04/26 00:07:41;;;;;;;2.20;1.33;;;7.70;99.90;;;;;;4156117;28;20046;-66
2023/04/26 00:09:43;;;;;;;3.47;1.85;;;7.60;99.90;;;;;;4158301;28;20411;-67
2023/04/26 00:11:44;;;;;;;5.63;1.83;;;7.60;99.90;;;;;;4155499;28;20035;-66
2023/04/26 00:13:44;;;;;;;3.50;1.75;;;7.60;99.90;;;;;;4157185;28;20544;-67
2023/04/26 00:15:45;;;;;;;4.15;1.70;;;7.60;99.90;;;;;;4156224;28;20038;-67
2023/04/26 00:17:46;;;;;;;4.18;1.60;;;7.60;99.90;;;;;;4157891;28;20487;-67
2023/04/26 00:19:46;;;;;;;3.53;1.75;;;7.60;99.90;;;;;;4155752;28;20507;-67
2023/04/26 00:21:47;;;;;;;5.05;1.88;;;7.60;99.90;;;;;;4154948;28;20072;-67
2023/04/26 00:23:47;;;;;;;5.28;2.10;;;7.60;99.90;;;;;;4152957;28;20507;-67
2023/04/26 00:25:48;;;;;;;5.47;1.77;;;7.60;99.90;;;;;;4155115;28;20495;-67
2023/04/26 00:27:49;;;;;;;5.68;1.80;;;7.60;99.90;;;;;;4156843;28;20048;-67
2023/04/26 00:29:49;;;;;;;3.28;1.73;;;7.60;99.90;;;;;;4153256;28;20046;-66
2023/04/26 00:31:50;;;;;;;7.63;2.28;;;7.60;99.90;;;;;;4156102;28;20495;-66
2023/04/26 00:33:51;;;;;;;3.35;1.80;;;7.60;99.90;;;;;;4156853;28;20033;-66
2023/04/26 00:35:51;;;;;;;5.60;1.77;;;7.60;99.90;;;;;;4156578;28;20033;-66
2023/04/26 00:37:52;;;;;;;4.00;2.10;;;7.60;99.90;;;;;;4155671;28;20504;-66
2023/04/26 00:39:52;;;;;;;4.22;1.88;;;7.50;99.90;;;;;;4158400;28;20037;-67
2023/04/26 00:41:53;;;;;;;4.68;2.15;;;7.50;99.90;;;;;;4153986;28;20038;-67
2023/04/26 00:43:54;;;;;;;4.53;1.70;;;7.50;99.90;;;;;;4156624;28;20057;-67
2023/04/26 00:45:55;;;;;;;5.30;1.85;;;7.50;99.90;;;;;;4156342;28;20628;-66
2023/04/26 00:47:57;;;;;;;5.82;2.20;;;7.50;99.90;;;;;;4156687;28;20128;-66
2023/04/26 00:49:59;;;;;;;4.60;1.65;;;7.50;99.90;;;;;;4145518;28;20082;-67
2023/04/26 00:51:59;;;;;;;2.88;1.73;;;7.50;99.90;;;;;;4156537;28;20041;-67
2023/04/26 00:54:00;;;;;;;4.57;1.95;;;7.40;99.90;;;;;;4156872;28;20033;-67
2023/04/26 00:56:02;;;;;;;3.40;1.73;;;7.30;99.90;;;;;;4156019;28;20057;-66
2023/04/26 00:58:02;;;;;;;3.55;1.40;;;7.30;99.90;;;;;;4156818;28;20056;-67
2023/04/26 01:00:04;;;;;;;2.53;1.50;;;7.30;99.90;;;;;;4156901;28;20064;-67
2023/04/26 01:02:05;;;;;;;4.25;1.88;;;7.20;99.90;;;;;;4153763;28;20060;-67
2023/04/26 01:04:06;;;;;;;5.85;1.80;;;7.20;99.90;;;;;;4153796;28;20029;-67
2023/04/26 01:06:07;;;;;;;4.13;1.90;;;7.10;99.90;;;;;;4147683;28;20049;-67
2023/04/26 01:08:08;;;;;;;5.78;2.30;;;7.10;99.90;;;;;;4157151;28;20041;-67
2023/04/26 01:10:09;;;;;;;4.20;1.98;;;7.10;99.90;;;;;;4155406;28;20033;-67
2023/04/26 01:12:11;;;;;;;6.65;2.00;;;7.10;99.90;;;;;;4157691;28;20442;-67
2023/04/26 01:14:13;;;;;;;8.02;2.15;;;7.10;99.90;;;;;;4158789;28;20037;-67
2023/04/26 01:16:14;;;;;;;3.75;2.13;;;7.10;99.90;;;;;;4159881;28;20041;-66
2023/04/26 01:18:15;;;;;;;6.28;2.28;;;7.10;99.90;;;;;;4158557;28;20077;-67
2023/04/26 01:20:16;;;;;;;6.45;2.15;;;7.10;99.90;;;;;;4159419;28;20117;-67
2023/04/26 01:22:17;;;;;;;6.30;2.33;;;7.00;99.90;;;;;;4159547;28;20828;-67
2023/04/26 01:24:17;;;;;;;3.70;1.92;;;7.00;99.90;;;;;;4156937;28;20128;-67
2023/04/26 01:26:18;;;;;;;3.60;1.92;;;7.00;99.90;;;;;;4158198;28;20041;-67
2023/04/26 01:28:18;;;;;;;5.78;1.95;;;6.90;99.90;;;;;;4156378;28;20487;-67
2023/04/26 01:30:19;;;;;;;4.80;2.10;;;6.90;99.90;;;;;;4145870;28;20038;-67
2023/04/26 01:32:20;;;;;;;5.60;2.30;;;6.80;99.90;;;;;;4160358;28;20056;-67
2023/04/26 01:34:21;;;;;;;3.08;2.03;;;6.80;99.90;;;;;;4147506;28;20488;-67
2023/04/26 01:36:21;;;;;;;5.28;2.33;;;6.80;99.90;;;;;;4158581;28;20042;-67
2023/04/26 01:38:22;;;;;;;6.50;2.33;;;6.80;99.90;;;;;;4160279;28;20124;-67
2023/04/26 01:40:22;;;;;;;5.68;2.35;;;6.80;99.90;;;;;;4159279;28;20601;-66
2023/04/26 01:42:23;;;;;;;3.00;1.98;;;6.80;99.90;;;;;;4154443;28;20040;-66
2023/04/26 01:44:23;;;;;;;5.47;2.25;;;6.70;99.90;;;;;;4159674;28;20034;-67
2023/04/26 01:46:24;;;;;;;4.00;2.13;;;6.70;99.90;;;;;;4159079;28;20079;-67
2023/04/26 01:48:25;;;;;;;4.25;2.10;;;6.70;99.90;;;;;;4158889;28;20749;-65
2023/04/26 01:50:26;;;;;;;3.20;2.00;;;6.70;99.90;;;;;;4157483;28;20033;-66
2023/04/26 01:52:26;;;;;;;3.10;1.92;;;6.60;99.90;;;;;;4155686;28;20033;-67
2023/04/26 01:54:27;;;;;;;4.32;2.20;;;6.60;99.90;;;;;;4159875;28;20482;-67
2023/04/26 01:56:27;;;;;;;3.13;1.90;;;6.60;99.90;;;;;;4156186;28;20385;-68
2023/04/26 01:58:29;;;;;;;5.03;2.03;;;6.60;99.90;;;;;;4156831;28;20029;-67
2023/04/26 02:00:29;;;;;;;4.25;1.77;;;6.50;99.90;;;;;;4158729;28;20056;-66
2023/04/26 02:02:30;;;;;;;4.18;2.05;;;6.40;99.90;;;;;;4145772;28;20026;-67
2023/04/26 02:04:30;;;;;;;4.15;1.90;;;6.40;99.90;;;;;;4157378;28;20116;-67
2023/04/26 02:06:31;;;;;;;3.97;2.10;;;6.40;99.90;;;;;;4158148;28;20503;-67
2023/04/26 02:08:32;;;;;;;3.67;1.83;;;6.30;99.90;;;;;;4158625;28;20033;-67
2023/04/26 02:10:32;;;;;;;3.92;2.05;;;6.30;99.90;;;;;;4158116;28;20026;-67
2023/04/26 02:12:33;;;;;;;5.78;2.28;;;6.30;99.90;;;;;;4155132;28;20413;-66
2023/04/26 02:14:34;;;;;;;4.28;2.42;;;6.20;99.90;;;;;;4158217;28;20030;-66
2023/04/26 02:16:35;;;;;;;5.43;2.67;;;6.20;99.90;;;;;;4158104;28;20064;-66
2023/04/26 02:18:35;;;;;;;4.90;2.42;;;6.20;99.90;;;;;;4154961;28;20460;-66
2023/04/26 02:20:36;;;;;;;7.28;3.03;;;6.20;99.90;;;;;;4158905;28;20099;-68
2023/04/26 02:22:37;;;;;;;5.60;3.05;;;6.20;99.90;;;;;;4156993;28;20472;-67
2023/04/26 02:24:37;;;;;;;8.60;3.28;;;6.20;99.90;;;;;;4159046;28;20033;-66
2023/04/26 02:26:38;;;;;;;5.68;2.90;;;6.20;99.90;;;;;;4158088;28;20116;-67
2023/04/26 02:28:39;;;;;;;6.85;3.10;;;6.20;99.90;;;;;;4154918;28;20079;-66
2023/04/26 02:30:39;;;;;;;7.03;3.38;;;6.20;99.90;;;;;;4155043;28;20041;-66
2023/04/26 02:32:40;;;;;;;4.05;2.90;;;6.30;99.90;;;;;;4154352;28;20443;-66
2023/04/26 02:34:41;;;;;;;5.10;3.00;;;6.20;99.90;;;;;;4153911;28;20433;-66
2023/04/26 02:36:42;;;;;;;8.20;3.20;;;6.30;99.90;;;;;;4151035;28;20111;-67
2023/04/26 02:38:43;;;;;;;4.93;2.95;;;6.20;99.90;;;;;;4155668;28;20033;-66
2023/04/26 02:40:44;;;;;;;7.00;2.78;;;6.20;99.90;;;;;;4152676;28;20113;-68
2023/04/26 02:42:44;;;;;;;3.95;2.70;;;6.20;99.90;;;;;;4155144;28;20037;-67
2023/04/26 02:44:45;;;;;;;3.08;2.15;;;6.20;99.90;;;;;;4154582;28;20045;-66
2023/04/26 02:46:46;;;;;;;3.38;2.10;;;6.10;99.90;;;;;;4156532;28;20046;-66
2023/04/26 02:48:46;;;;;;;5.22;2.70;;;6.00;99.90;;;;;;4156923;28;20051;-66
2023/04/26 02:50:47;;;;;;;5.25;2.47;;;6.00;99.90;;;;;;4154287;28;20041;-67
2023/04/26 02:52:47;;;;;;;8.57;2.50;;;5.90;99.90;;;;;;4155352;28;20103;-67
2023/04/26 02:54:48;;;;;;;4.53;2.38;;;5.90;99.90;;;;;;4153882;28;20030;-66
2023/04/26 02:56:48;;;;;;;11.48;2.83;;;5.90;99.90;;;;;;4154547;28;20048;-67
2023/04/26 02:58:49;;;;;;;4.88;2.30;;;5.90;99.90;;;;;;4158158;28;20034;-67
2023/04/26 03:00:50;;;;;;;6.53;2.83;;;5.80;99.90;;;;;;4157751;28;20520;-67
2023/04/26 03:02:50;;;;;;;5.10;2.83;;;5.80;99.90;;;;;;4160146;28;20144;-67
2023/04/26 03:04:51;;;;;;;7.28;2.70;;;5.80;99.90;;;;;;4157691;28;20120;-67
2023/04/26 03:06:52;;;;;;;6.00;2.50;;;5.80;99.90;;;;;;4157931;28;20531;-67
2023/04/26 03:08:52;;;;;;;5.20;2.97;;;5.80;99.90;;;;;;4158483;28;20076;-67
2023/04/26 03:10:53;;;;;;;5.93;2.90;;;5.80;99.90;;;;;;4157758;28;20044;-67
2023/04/26 03:12:54;;;;;;;8.13;3.50;;;5.90;99.90;;;;;;4157128;28;20496;-67
2023/04/26 03:14:54;;;;;;;5.78;3.60;;;5.90;99.90;;;;;;4156355;28;20481;-66
2023/04/26 03:16:55;;;;;;;5.30;3.63;;;5.90;99.90;;;;;;4158313;28;20045;-67
2023/04/26 03:18:55;;;;;;;4.85;3.30;;;5.90;99.90;;;;;;4157937;28;20524;-66
2023/04/26 03:20:56;;;;;;;3.90;3.03;;;5.90;99.90;;;;;;4158066;28;20037;-66
2023/04/26 03:22:56;;;;;;;4.78;3.00;;;5.80;99.90;;;;;;4158847;28;20027;-67
2023/04/26 03:24:57;;;;;;;6.07;3.22;;;5.80;99.90;;;;;;4155354;28;20400;-66
2023/04/26 03:26:58;;;;;;;5.88;3.15;;;5.80;99.90;;;;;;4157169;28;20037;-67
2023/04/26 03:28:59;;;;;;;4.10;2.65;;;5.80;99.90;;;;;;4156168;28;20045;-67
2023/04/26 03:31:00;;;;;;;5.72;2.80;;;5.80;99.90;;;;;;4156758;28;20033;-67
2023/04/26 03:33:01;;;;;;;7.25;3.55;;;5.80;99.90;;;;;;4158849;28;20033;-66
2023/04/26 03:35:01;;;;;;;5.13;3.10;;;5.70;99.90;;;;;;4156669;28;20064;-67
2023/04/26 03:37:02;;;;;;;5.50;2.70;;;5.70;99.90;;;;;;4157446;28;20045;-67
2023/04/26 03:39:04;;;;;;;6.15;2.85;;;5.70;99.90;;;;;;4158290;28;20464;-68
2023/04/26 03:41:05;;;;;;;5.07;3.10;;;5.70;99.90;;;;;;4153672;28;20029;-67
2023/04/26 03:43:06;;;;;;;5.97;3.30;;;5.60;99.90;;;;;;4157970;28;20033;-66
2023/04/26 03:45:07;;;;;;;6.55;3.38;;;5.60;99.90;;;;;;4154731;28;20041;-68
2023/04/26 03:47:08;;;;;;;6.47;3.50;;;5.60;99.90;;;;;;4157242;28;20040;-67
2023/04/26 03:49:08;;;;;;;6.22;3.22;;;5.60;99.90;;;;;;4158658;28;20420;-66
2023/04/26 03:51:09;;;;;;;9.60;3.95;;;5.60;99.90;;;;;;4155987;28;20187;-67
2023/04/26 03:53:10;;;;;;;6.65;3.47;;;5.60;99.90;;;;;;4155240;28;20087;-66
2023/04/26 03:55:11;;;;;;;7.63;3.67;;;5.60;99.90;;;;;;4153968;28;20076;-66
2023/04/26 03:57:12;;;;;;;7.82;3.60;;;5.60;99.90;;;;;;4157306;28;20484;-67
2023/04/26 03:59:12;;;;;;;7.07;3.83;;;5.60;99.90;;;;;;4157410;28;20095;-67
2023/04/26 04:01:13;;;;;;;7.75;4.28;;;5.60;99.90;;;;;;4154308;28;20025;-67
2023/04/26 04:03:13;;;;;;;7.82;4.15;;;5.60;99.90;;;;;;4156971;28;20496;-67
2023/04/26 04:05:14;;;;;;;7.00;4.60;;;5.60;99.90;;;;;;4157248;28;20119;-66
2023/04/26 04:07:15;;;;;;;7.75;4.22;;;5.60;99.90;;;;;;4158547;28;20081;-67
2023/04/26 04:09:16;;;;;;;11.90;5.22;;;5.70;99.90;;;;;;4158905;28;20049;-67
2023/04/26 04:11:16;;;;;;;7.22;4.32;;;5.60;99.90;;;;;;4154860;28;20146;-66
2023/04/26 04:13:17;;;;;;;7.13;4.35;;;5.60;99.90;;;;;;4153681;28;20037;-66
2023/04/26 04:15:19;;;;;;;7.30;4.55;;;5.60;99.90;;;;;;4154895;28;20476;-67
2023/04/26 04:17:19;;;;;;;11.17;4.50;;;5.60;99.90;;;;;;4157723;28;20181;-66
2023/04/26 04:19:20;;;;;;;5.55;3.80;;;5.60;99.90;;;;;;4157136;28;20264;-67
2023/04/26 04:21:20;;;;;;;8.68;4.45;;;5.60;99.90;;;;;;4154982;28;20500;-67
2023/04/26 04:23:21;;;;;;;7.93;4.00;;;5.60;99.90;;;;;;4152921;28;20065;-67
2023/04/26 04:25:22;;;;;;;5.68;3.67;;;5.60;99.90;;;;;;4157334;28;20033;-66
2023/04/26 04:27:23;;;;;;;5.80;3.90;;;5.50;99.90;;;;;;4156999;28;20124;-67
2023/04/26 04:29:24;;;;;;;6.07;4.13;;;5.60;99.90;;;;;;4157251;28;20049;-66
2023/04/26 04:31:24;;;;;;;6.30;4.28;;;5.50;99.90;;;;;;4157044;28;20037;-67
2023/04/26 04:33:27;;;;;;;6.15;3.72;;;5.50;99.90;;;;;;4156719;28;20034;-67
2023/04/26 04:35:32;;;;;;;5.85;4.18;;;5.50;99.90;;;;;;4155607;28;20041;-65
2023/04/26 04:37:33;;;;;;;8.15;4.72;;;5.50;99.90;;;;;;4155015;28;20068;-67
2023/04/26 04:39:34;;;;;;;8.27;4.65;;;5.40;99.90;;;;;;4158015;28;20030;-67
2023/04/26 04:41:35;;;;;;;8.60;4.32;;;5.40;99.90;;;;;;4156560;28;20034;-67
2023/04/26 04:43:36;;;;;;;6.30;4.35;;;5.30;99.90;;;;;;4154611;28;20034;-66
2023/04/26 04:45:37;;;;;;;7.13;5.05;;;5.30;99.90;;;;;;4153504;28;20040;-66
2023/04/26 04:47:38;;;;;;;10.10;5.60;;;5.40;99.90;;;;;;4161555;28;20480;-66
2023/04/26 04:49:39;;;;;;;7.45;4.97;;;5.40;99.90;;;;;;4159346;28;20121;-66
2023/04/26 04:51:39;;;;;;;9.10;4.57;;;5.40;99.90;;;;;;4156517;28;20121;-65
2023/04/26 04:53:40;;;;;;;7.22;4.45;;;5.30;99.90;;;;;;4160302;28;20060;-66
2023/04/26 04:55:40;;;;;;;8.43;5.10;;;5.30;99.90;;;;;;4157488;28;20045;-66
2023/04/26 04:57:41;;;;;;;7.72;4.68;;;5.30;99.90;;;;;;4160496;28;20040;-66
2023/04/26 04:59:42;;;;;;;10.18;4.63;;;5.30;99.90;;;;;;4159873;28;20116;-66
2023/04/26 05:01:42;;;;;;;9.40;4.80;;;5.40;99.90;;;;;;4159184;28;20027;-66
2023/04/26 05:03:43;;;;;;;8.60;5.03;;;5.40;99.90;;;;;;4159124;28;20425;-67
2023/04/26 05:05:44;;;;;;;9.60;6.07;;;5.40;99.90;;;;;;4158949;28;20034;-66
2023/04/26 05:07:44;;;;;;;10.02;6.07;;;5.50;99.90;;;;;;4159876;28;20056;-66
2023/04/26 05:09:45;;;;;;;7.68;5.15;;;5.50;99.90;;;;;;4160904;28;20033;-67
2023/04/26 05:11:46;;;;;;;8.18;5.70;;;5.50;99.90;;;;;;4158022;28;20030;-67
2023/04/26 05:13:47;;;;;;;7.45;5.22;;;5.60;99.90;;;;;;4153760;28;20037;-67
2023/04/26 05:15:48;;;;;;;6.90;4.35;;;5.60;99.90;;;;;;4155525;28;20088;-67
2023/04/26 05:17:48;;;;;;;6.47;4.65;;;5.50;99.90;;;;;;4159629;28;20116;-67
2023/04/26 05:19:49;;;;;;;8.68;4.80;;;5.60;99.90;;;;;;4159984;28;20033;-67
2023/04/26 05:21:51;;;;;;;8.27;4.80;;;5.50;99.90;;;;;;4144056;28;20034;-67
2023/04/26 05:23:51;;;;;;;7.30;5.18;;;5.60;99.90;;;;;;4153712;28;20052;-67
2023/04/26 05:25:52;;;;;;;7.25;4.82;;;5.60;99.90;;;;;;4158399;28;20527;-67
2023/04/26 05:27:52;;;;;;;8.05;5.35;;;5.60;99.90;;;;;;4160443;28;20041;-66
2023/04/26 05:29:53;;;;;;;7.97;5.32;;;5.60;99.90;;;;;;4159523;28;20383;-67
2023/04/26 05:31:54;;;;;;;8.70;6.05;;;5.60;99.90;;;;;;4152608;28;20042;-67
2023/04/26 05:33:54;;;;;;;11.93;6.40;;;5.70;99.90;;;;;;4158609;28;20108;-67
2023/04/26 05:35:56;;;;;;;11.25;6.47;;;5.70;99.90;;;;;;4159141;28;20153;-66
2023/04/26 05:37:57;;;;;;;15.50;7.80;;;5.80;99.90;;;;;;4156851;28;20045;-67
2023/04/26 05:39:58;;;;;;;14.60;7.57;;;5.90;99.90;;;;;;4155550;28;20041;-67
2023/04/26 05:41:58;;;;;;;13.88;7.85;;;5.90;99.90;;;;;;4155728;28;20041;-67
2023/04/26 05:43:59;;;;;;;13.77;7.60;;;6.00;99.90;;;;;;4156726;28;20076;-67
2023/04/26 05:46:00;;;;;;;14.40;8.98;;;6.00;99.90;;;;;;4157497;28;20500;-67
2023/04/26 05:48:01;;;;;;;11.70;7.82;;;6.10;99.90;;;;;;4158893;28;20100;-69
2023/04/26 05:50:02;;;;;;;12.18;7.05;;;6.20;99.90;;;;;;4153464;28;20029;-67
2023/04/26 05:52:02;;;;;;;17.73;8.20;;;6.30;99.90;;;;;;4157612;28;20041;-68
2023/04/26 05:54:03;;;;;;;14.68;7.53;;;6.40;99.90;;;;;;4160410;28;20394;-67
2023/04/26 05:56:04;;;;;;;14.70;8.20;;;6.40;99.90;;;;;;4159960;28;20103;-67
2023/04/26 05:58:05;;;;;;;15.40;8.68;;;6.50;99.90;;;;;;4157708;28;20036;-67
2023/04/26 06:00:08;;;;;;;16.48;9.13;;;6.60;99.90;;;;;;4158655;28;20124;-67
2023/04/26 06:02:10;;;;;;;18.70;10.23;;;6.70;99.90;;;;;;4159948;28;20049;-67
2023/04/26 06:04:10;;;;;;;19.98;10.25;;;6.80;99.90;;;;;;4157241;28;20050;-67
2023/04/26 06:06:11;;;;;;;16.10;9.38;;;6.80;99.90;;;;;;4159516;28;20046;-67
2023/04/26 06:08:12;;;;;;;17.95;9.73;;;6.90;99.90;;;;;;4147900;28;20057;-67
2023/04/26 06:10:13;;;;;;;15.63;9.18;;;7.00;99.90;;;;;;4159392;28;20053;-67
2023/04/26 06:12:13;;;;;;;16.58;8.85;;;7.10;99.90;;;;;;4160083;28;20473;-67
2023/04/26 06:14:14;;;;;;;19.73;9.48;;;7.20;99.90;;;;;;4164233;28;20082;-67
2023/04/26 06:16:14;;;;;;;16.48;8.32;;;7.20;99.90;;;;;;4158353;28;20132;-67
2023/04/26 06:18:15;;;;;;;15.57;8.55;;;7.30;99.90;;;;;;4158420;28;20041;-67
2023/04/26 06:20:16;;;;;;;16.63;8.55;;;7.40;99.90;;;;;;4159835;28;20033;-67
2023/04/26 06:22:16;;;;;;;16.77;9.20;;;7.50;99.90;;;;;;4158903;28;20029;-67
2023/04/26 06:24:17;;;;;;;17.80;8.95;;;7.50;99.90;;;;;;4159640;28;20052;-67
2023/04/26 06:26:17;;;;;;;15.38;7.82;;;7.60;99.90;;;;;;4159564;28;20044;-68
2023/04/26 06:28:18;;;;;;;12.95;7.60;;;7.70;99.90;;;;;;4160179;28;20042;-68
2023/04/26 06:30:19;;;;;;;14.80;8.15;;;7.80;99.90;;;;;;4154076;28;20033;-68
2023/04/26 06:32:19;;;;;;;15.88;8.20;;;7.90;99.90;;;;;;4151479;28;20164;-68
2023/04/26 06:34:20;;;;;;;21.30;9.48;;;8.00;99.90;;;;;;4159390;28;20041;-67
2023/04/26 06:36:20;;;;;;;12.82;8.15;;;8.10;99.90;;;;;;4157690;28;20067;-68
2023/04/26 06:38:21;;;;;;;15.15;8.05;;;8.20;99.90;;;;;;4160798;28;20038;-67
2023/04/26 06:40:22;;;;;;;13.00;7.57;;;8.30;99.90;;;;;;4155353;28;20485;-68
2023/04/26 06:42:22;;;;;;;13.18;7.20;;;8.40;99.90;;;;;;4158217;28;20033;-67
2023/04/26 06:44:23;;;;;;;15.13;8.13;;;8.50;99.90;;;;;;4156623;28;20072;-67
2023/04/26 06:46:23;;;;;;;14.40;7.50;;;8.70;99.90;;;;;;4155492;28;20109;-67
2023/04/26 06:48:24;;;;;;;14.48;6.63;;;8.80;99.90;;;;;;4159252;28;20057;-67
2023/04/26 06:50:25;;;;;;;9.52;5.68;;;9.00;99.90;;;;;;4157379;28;20045;-67
2023/04/26 06:52:25;;;;;;;12.52;6.70;;;9.30;99.90;;;;;;4160636;28;20034;-67
2023/04/26 06:54:30;;;;;;;10.77;5.97;;;9.50;99.90;;;;;;4158642;28;20036;-68
2023/04/26 06:56:31;;;;;;;9.43;6.13;;;9.80;99.90;;;;;;4155945;28;20049;-67
2023/04/26 06:58:31;;;;;;;9.70;6.05;;;10.10;99.90;;;;;;4159471;28;20064;-68
2023/04/26 07:00:32;;;;;;;10.57;5.82;;;10.40;99.90;;;;;;4158403;28;20041;-67
2023/04/26 07:02:32;;;;;;;11.15;6.05;;;10.70;99.90;;;;;;4160436;28;20112;-67
2023/04/26 07:04:33;;;;;;;11.00;6.15;;;10.90;99.90;;;;;;4157819;28;20045;-68
2023/04/26 07:06:34;;;;;;;12.00;5.88;;;11.20;99.90;;;;;;4159886;28;20088;-67
2023/04/26 07:08:35;;;;;;;7.97;4.85;;;11.40;99.90;;;;;;4154459;28;20037;-68
2023/04/26 07:10:35;;;;;;;11.18;6.05;;;11.50;99.90;;;;;;4154232;28;20037;-69
2023/04/26 07:12:36;;;;;;;9.40;5.00;;;11.60;99.90;;;;;;4154594;28;20025;-68
2023/04/26 07:14:41;;;;;;;8.32;5.70;;;11.80;99.90;;;;;;4156460;28;20030;-69
2023/04/26 07:16:42;;;;;;;8.52;5.07;;;11.90;99.90;;;;;;4157866;28;20034;-69
2023/04/26 07:18:43;;;;;;;9.63;5.25;;;12.00;99.90;;;;;;4157423;28;20039;-69
2023/04/26 07:20:43;;;;;;;11.10;5.35;;;12.10;99.90;;;;;;4154270;28;20083;-69
2023/04/26 07:22:44;;;;;;;7.35;4.43;;;12.20;99.90;;;;;;4154637;28;20120;-69
2023/04/26 07:24:45;;;;;;;8.35;5.32;;;12.20;99.90;;;;;;4156280;28;20038;-69
2023/04/26 07:26:46;;;;;;;8.52;4.75;;;12.20;99.90;;;;;;4152198;28;20037;-69
2023/04/26 07:28:46;;;;;;;8.52;4.90;;;12.20;99.90;;;;;;4155357;28;20040;-69
2023/04/26 07:30:47;;;;;;;10.20;5.32;;;12.20;99.90;;;;;;4152302;28;20535;-68
2023/04/26 07:32:47;;;;;;;11.75;5.70;;;12.20;99.90;;;;;;4154365;28;20053;-69
2023/04/26 07:34:48;;;;;;;13.68;5.00;;;12.20;99.90;;;;;;4155183;28;20466;-70
2023/04/26 07:36:48;;;;;;;8.63;4.18;;;12.20;99.90;;;;;;4149506;28;20124;-69
2023/04/26 07:38:49;;;;;;;8.10;4.00;;;12.10;99.90;;;;;;4156895;28;20048;-69
2023/04/26 07:40:50;;;;;;;11.15;4.60;;;12.10;99.90;;;;;;4154410;28;20061;-69
2023/04/26 07:42:52;;;;;;;9.73;4.07;;;12.00;99.90;;;;;;4157504;28;20152;-69
2023/04/26 07:44:52;;;;;;;5.07;3.33;;;12.10;99.90;;;;;;4156358;28;20034;-69
2023/04/26 07:46:53;;;;;;;9.55;2.78;;;12.10;99.90;;;;;;4153680;28;20042;-69
2023/04/26 07:48:54;;;;;;;12.15;4.72;;;12.10;99.90;;;;;;4155591;28;20044;-68
2023/04/26 07:50:54;;;;;;;7.93;3.50;;;12.10;99.90;;;;;;4155653;28;20068;-68
2023/04/26 07:52:55;;;;;;;5.95;2.40;;;11.90;99.90;;;;;;4154862;28;20144;-68
2023/04/26 07:54:56;;;;;;;11.00;3.72;;;12.00;99.90;;;;;;4151328;28;20506;-68
2023/04/26 07:56:56;;;;;;;6.95;2.88;;;11.90;99.90;;;;;;4157547;28;20048;-68
2023/04/26 07:58:57;;;;;;;3.65;2.38;;;11.80;99.90;;;;;;4154333;28;20030;-68
2023/04/26 08:00:58;;;;;;;4.25;2.80;;;11.80;99.90;;;;;;4153544;28;20400;-69
2023/04/26 08:02:59;;;;;;;9.10;3.20;;;11.80;99.90;;;;;;4150297;28;20045;-69
2023/04/26 08:04:59;;;;;;;8.07;3.08;;;11.80;99.90;;;;;;4154993;28;20036;-68
2023/04/26 08:07:00;;;;;;;5.68;3.03;;;11.80;99.90;;;;;;4153799;28;20404;-69
2023/04/26 08:09:02;;;;;;;9.52;2.90;;;11.80;99.90;;;;;;4155462;28;20041;-69
2023/04/26 08:11:06;;;;;;;5.72;2.88;;;11.80;99.90;;;;;;4152946;28;20040;-68
2023/04/26 08:13:07;;;;;;;5.35;3.20;;;11.80;99.90;;;;;;4154895;28;20041;-69
2023/04/26 08:15:08;;;;;;;7.30;2.80;;;11.80;99.90;;;;;;4152111;28;20473;-69
2023/04/26 08:17:09;;;;;;;5.40;2.50;;;11.80;99.90;;;;;;4153766;28;20033;-68
2023/04/26 08:19:09;;;;;;;7.45;2.35;;;11.90;99.90;;;;;;4155972;28;20033;-68
2023/04/26 08:21:10;;;;;;;4.50;1.90;;;11.80;99.90;;;;;;4155986;28;20041;-68
2023/04/26 08:23:11;;;;;;;7.22;2.10;;;11.90;99.90;;;;;;4155821;28;20026;-68
2023/04/26 08:25:12;;;;;;;4.15;1.83;;;11.90;99.90;;;;;;4156117;28;20444;-67
2023/04/26 08:27:12;;;;;;;2.72;1.30;;;12.00;99.90;;;;;;4156361;28;20507;-68
2023/04/26 08:29:14;;;;;;;4.70;1.45;;;12.00;99.90;;;;;;4155165;28;20041;-68
2023/04/26 08:31:14;;;;;;;5.10;1.52;;;12.00;99.90;;;;;;4156670;28;20045;-69
2023/04/26 08:33:17;;;;;;;3.88;1.35;;;12.00;99.90;;;;;;4154633;28;20433;-69
2023/04/26 08:35:18;;;;;;;5.65;1.40;;;12.00;99.90;;;;;;4159980;28;20487;-69
2023/04/26 08:37:19;;;;;;;5.00;2.08;;;12.00;99.90;;;;;;4160763;28;20124;-68
2023/04/26 08:39:19;;;;;;;5.35;2.15;;;12.00;99.90;;;;;;4159276;28;20061;-69
2023/04/26 08:41:24;;;;;;;4.65;1.80;;;11.90;99.90;;;;;;4138199;28;20121;-69
2023/04/26 08:43:26;;;;;;;4.90;1.85;;;11.90;99.90;;;;;;4156897;28;20038;-68
2023/04/26 08:45:27;;;;;;;2.57;1.03;;;11.90;99.90;;;;;;4156321;28;20119;-68
2023/04/26 08:47:44;;;;;;;3.13;1.05;;;11.90;99.90;;;;;;4160798;28;20045;-68
2023/04/26 08:49:52;;;;;;;5.00;1.33;;;11.90;99.90;;;;;;4157962;28;20099;-69
2023/04/26 08:51:55;;;;;;;3.50;1.33;;;11.80;99.90;;;;;;4157716;28;20388;-68
2023/04/26 08:53:56;;;;;;;;;;;11.70;99.90;;;;;;4148040;28;20038;-69
2023/04/26 08:55:58;;;;;;;3.90;1.10;;;11.70;99.90;;;;;;4152452;28;19929;-69
2023/04/26 08:58:00;;;;;;;4.90;1.55;;;11.60;99.90;;;;;;4154742;28;20041;-69
2023/04/26 09:00:05;;;;;;;3.60;1.63;;;11.70;99.90;;;;;;4153608;28;20034;-69
2023/04/26 09:02:08;;;;;;;5.90;2.00;;;11.70;99.90;;;;;;4155454;28;20096;-69
2023/04/26 09:04:09;;;;;;;3.92;1.55;;;11.60;99.90;;;;;;4159261;28;20477;-68
2023/04/26 09:06:11;;;;;;;5.88;1.75;;;11.60;99.90;;;;;;4155296;28;20086;-69
2023/04/26 09:08:15;;;;;;;2.97;1.60;;;11.60;99.90;;;;;;4154119;28;20042;-68
2023/04/26 09:10:20;;;;;;;5.82;1.40;;;11.50;99.90;;;;;;4156870;28;20038;-69
2023/04/26 09:12:20;;;;;;;4.05;1.30;;;11.50;99.90;;;;;;4158905;28;20115;-69
2023/04/26 09:14:21;;;;;;;6.57;1.70;;;11.40;99.90;;;;;;4156214;28;20038;-68
2023/04/26 09:16:38;;;;;;;2.13;1.05;;;11.40;99.90;;;;;;4159630;28;20034;-69
2023/04/26 09:18:51;;;;;;;4.10;1.52;;;11.50;99.90;;;;;;4157044;28;20038;-69
2023/04/26 09:21:03;;;;;;;3.08;1.33;;;11.50;99.90;;;;;;4159952;28;20041;-69
2023/04/26 09:23:08;;;;;;;4.82;1.70;;;11.60;99.90;;;;;;4152542;28;20124;-68
2023/04/26 09:25:12;;;;;;;6.57;1.75;;;11.70;99.90;;;;;;4159775;28;20540;-70
2023/04/26 09:27:15;;;;;;;5.45;1.45;;;11.80;99.90;;;;;;4161233;28;20041;-68
2023/04/26 09:29:19;;;;;;;3.53;1.50;;;11.80;99.90;;;;;;4159936;28;20037;-69
2023/04/26 09:31:38;;;;;;;5.00;1.70;;;11.80;99.90;;;;;;4160898;28;20033;-68
2023/04/26 09:33:59;;;;;;;3.15;1.80;;;11.80;99.90;;;;;;4160986;28;20041;-69
2023/04/26 09:36:12;;;;;;;4.10;1.95;;;11.80;99.90;;;;;;4158421;28;20040;-68
2023/04/26 09:38:14;;;;;;;;;;;11.80;99.90;;;;;;4149147;28;20072;-68
2023/04/26 09:40:21;;;;;;;1.83;1.15;;;11.90;99.90;;;;;;4159373;28;19909;-68
2023/04/26 09:42:22;;;;;;;3.55;1.40;;;11.90;99.90;;;;;;4162022;28;20045;-70
2023/04/26 09:44:23;;;;;;;4.00;1.63;;;12.00;99.90;;;;;;4156671;28;20064;-70
2023/04/26 09:46:24;;;;;;;3.38;1.25;;;12.00;99.90;;;;;;4160293;28;20032;-69
2023/04/26 09:48:29;;;;;;;4.80;1.33;;;12.10;99.90;;;;;;4161737;28;20042;-69
2023/04/26 09:50:30;;;;;;;4.88;1.45;;;12.20;99.90;;;;;;4160901;28;21444;-70
2023/04/26 09:52:42;;;;;;;3.42;1.23;;;12.30;99.90;;;;;;4161437;28;20088;-69
2023/04/26 09:54:50;;;;;;;3.00;1.30;;;12.30;99.90;;;;;;4141714;28;20029;-67
2023/04/26 09:57:00;;;;;;;3.90;1.48;;;12.30;97.60;;;;;;4159500;28;20472;-69
2023/04/26 09:59:03;;;;;;;3.25;1.20;;;12.40;99.90;;;;;;4157777;28;20091;-69
2023/04/26 10:01:06;;;;;;;2.42;1.27;;;12.50;98.80;;;;;;4159797;28;20036;-68
2023/04/26 10:03:08;;;;;;;2.78;1.50;;;12.50;99.90;;;;;;4161143;28;20034;-69
2023/04/26 10:05:09;;;;;;;3.70;1.17;;;12.50;99.90;;;;;;4157266;28;20040;-71
2023/04/26 10:07:11;;;;;;;7.05;1.80;;;12.60;99.90;;;;;;4161127;28;20492;-68
2023/04/26 10:09:12;;;;;;;4.03;1.13;;;12.60;99.90;;;;;;4160687;28;20037;-69
2023/04/26 10:11:13;;;;;;;1.50;0.95;;;12.70;99.90;;;;;;4150019;28;20034;-68
2023/04/26 10:13:15;;;;;;;5.85;1.77;;;12.70;99.50;;;;;;4160476;28;20034;-68
2023/04/26 10:15:18;;;;;;;12.13;2.17;;;12.70;99.90;;;;;;4156241;28;20037;-68
2023/04/26 10:17:19;;;;;;;8.45;2.75;;;12.60;99.90;;;;;;4157011;28;20044;-68
2023/04/26 10:19:21;;;;;;;5.43;2.10;;;12.60;99.90;;;;;;4162664;28;20036;-68
2023/04/26 10:21:30;;;;;;;5.05;2.15;;;12.50;99.90;;;;;;4160212;28;20065;-69
2023/04/26 10:23:32;;;;;;;4.40;1.83;;;12.50;99.90;;;;;;4158581;28;20041;-69
2023/04/26 10:25:37;;;;;;;3.92;1.77;;;12.50;99.90;;;;;;4154994;28;20079;-68
2023/04/26 10:27:44;;;;;;;5.85;2.03;;;12.50;99.90;;;;;;4160492;28;20407;-69
2023/04/26 10:29:53;;;;;;;2.92;1.70;;;12.50;99.60;;;;;;4156111;28;20099;-67
2023/04/26 10:32:04;;;;;;;4.38;2.05;;;12.60;96.70;;;;;;4157242;28;20048;-70
2023/04/26 10:34:21;;;;;;;3.28;1.73;;;12.60;98.40;;;;;;4156300;28;20037;-69
2023/04/26 10:36:21;;;;;;;3.88;1.58;;;12.70;99.90;;;;;;4158103;28;20056;-67
2023/04/26 10:38:22;;;;;;;3.72;1.75;;;12.80;99.90;;;;;;4160489;28;20523;-69